sensor_id;sensor_type;location;lat;lon;timestamp;P1;durP1;ratioP1;P2;durP2;ratioP2
46334;SDS011;32051;48.882;9.210;2022-12-07T00:00:00;7.20;;;6.53;;
46334;SDS011;32051;48.882;9.210;2022-12-07T00:02:26;6.82;;;6.25;;
46334;SDS011;32051;48.882;9.210;2022-12-07T00:04:52;7.30;;;6.70;;
46334;SDS011;32051;48.882;9.210;2022-12-07T00:07:18;8.02;;;7.32;;
46334;SDS011;32051;48.882;9.210;2022-12-07T00:09:44;9.00;;;7.20;;
46334;SDS011;32051;48.882;9.210;2022-12-07T00:12:10;10.82;;;6.97;;
46334;SDS011;32051;48.882;9.210;2022-12-07T00:14:36;7.20;;;6.60;;
46334;SDS011;32051;48.882;9.210;2022-12-07T00:17:02;6.95;;;6.35;;
46334;SDS011;32051;48.882;9.210;2022-12-07T00:19:28;7.75;;;7.00;;
46334;SDS011;32051;48.882;9.210;2022-12-07T00:21:54;8.35;;;7.13;;
46334;SDS011;32051;48.882;9.210;2022-12-07T00:24:20;7.10;;;6.50;;
46334;SDS011;32051;48.882;9.210;2022-12-07T00:26:46;8.48;;;6.18;;
46334;SDS011;32051;48.882;9.210;2022-12-07T00:29:15;7.30;;;6.75;;
46334;SDS011;32051;48.882;9.210;2022-12-07T00:31:41;7.50;;;6.90;;
46334;SDS011;32051;48.882;9.210;2022-12-07T00:34:09;8.65;;;7.82;;
46334;SDS011;32051;48.882;9.210;2022-12-07T00:36:37;10.07;;;7.28;;
46334;SDS011;32051;48.882;9.210;2022-12-07T00:39:03;9.73;;;7.47;;
46334;SDS011;32051;48.882;9.210;2022-12-07T00:41:29;7.85;;;7.07;;
46334;SDS011;32051;48.882;9.210;2022-12-07T00:43:56;7.22;;;6.60;;
46334;SDS011;32051;48.882;9.210;2022-12-07T00:46:23;8.55;;;7.68;;
46334;SDS011;32051;48.882;9.210;2022-12-07T00:48:50;6.45;;;5.95;;
46334;SDS011;32051;48.882;9.210;2022-12-07T00:51:17;8.27;;;7.57;;
46334;SDS011;32051;48.882;9.210;2022-12-07T00:53:43;8.27;;;7.47;;
46334;SDS011;32051;48.882;9.210;2022-12-07T00:56:13;11.23;;;7.70;;
46334;SDS011;32051;48.882;9.210;2022-12-07T00:58:39;8.60;;;7.70;;
46334;SDS011;32051;48.882;9.210;2022-12-07T01:01:06;8.88;;;7.95;;
46334;SDS011;32051;48.882;9.210;2022-12-07T01:03:32;8.75;;;7.78;;
46334;SDS011;32051;48.882;9.210;2022-12-07T01:05:58;8.02;;;7.25;;
46334;SDS011;32051;48.882;9.210;2022-12-07T01:08:25;7.47;;;6.72;;
46334;SDS011;32051;48.882;9.210;2022-12-07T01:10:58;7.88;;;6.95;;
46334;SDS011;32051;48.882;9.210;2022-12-07T01:13:24;10.05;;;7.15;;
46334;SDS011;32051;48.882;9.210;2022-12-07T01:15:51;8.70;;;7.80;;
46334;SDS011;32051;48.882;9.210;2022-12-07T01:18:17;10.40;;;8.25;;
46334;SDS011;32051;48.882;9.210;2022-12-07T01:20:42;8.77;;;7.85;;
46334;SDS011;32051;48.882;9.210;2022-12-07T01:23:08;8.27;;;7.43;;
46334;SDS011;32051;48.882;9.210;2022-12-07T01:25:33;8.27;;;7.57;;
46334;SDS011;32051;48.882;9.210;2022-12-07T01:27:59;8.43;;;7.68;;
46334;SDS011;32051;48.882;9.210;2022-12-07T01:30:25;18.33;;;8.38;;
46334;SDS011;32051;48.882;9.210;2022-12-07T01:32:50;9.95;;;8.40;;
46334;SDS011;32051;48.882;9.210;2022-12-07T01:35:16;9.05;;;8.15;;
46334;SDS011;32051;48.882;9.210;2022-12-07T01:37:42;10.48;;;8.45;;
46334;SDS011;32051;48.882;9.210;2022-12-07T01:40:07;11.70;;;7.20;;
46334;SDS011;32051;48.882;9.210;2022-12-07T01:42:35;12.00;;;8.35;;
46334;SDS011;32051;48.882;9.210;2022-12-07T01:48:07;8.70;;;7.68;;
46334;SDS011;32051;48.882;9.210;2022-12-07T01:50:34;8.45;;;7.65;;
46334;SDS011;32051;48.882;9.210;2022-12-07T01:53:02;8.75;;;7.35;;
46334;SDS011;32051;48.882;9.210;2022-12-07T01:55:29;8.52;;;7.63;;
46334;SDS011;32051;48.882;9.210;2022-12-07T01:57:55;10.23;;;9.00;;
46334;SDS011;32051;48.882;9.210;2022-12-07T02:00:21;9.30;;;8.27;;
46334;SDS011;32051;48.882;9.210;2022-12-07T02:03:01;8.10;;;7.38;;
46334;SDS011;32051;48.882;9.210;2022-12-07T02:05:32;8.30;;;7.50;;
46334;SDS011;32051;48.882;9.210;2022-12-07T02:08:00;7.13;;;6.53;;
46334;SDS011;32051;48.882;9.210;2022-12-07T02:10:28;7.82;;;6.90;;
46334;SDS011;32051;48.882;9.210;2022-12-07T02:12:56;8.60;;;7.93;;
46334;SDS011;32051;48.882;9.210;2022-12-07T02:15:46;8.10;;;7.32;;
46334;SDS011;32051;48.882;9.210;2022-12-07T02:24:08;8.15;;;7.35;;
46334;SDS011;32051;48.882;9.210;2022-12-07T02:26:55;11.50;;;8.10;;
46334;SDS011;32051;48.882;9.210;2022-12-07T02:29:40;10.75;;;8.38;;
46334;SDS011;32051;48.882;9.210;2022-12-07T02:32:19;9.52;;;7.90;;
46334;SDS011;32051;48.882;9.210;2022-12-07T02:37:25;9.70;;;8.70;;
46334;SDS011;32051;48.882;9.210;2022-12-07T02:40:09;11.70;;;9.52;;
46334;SDS011;32051;48.882;9.210;2022-12-07T02:42:45;9.45;;;7.55;;
46334;SDS011;32051;48.882;9.210;2022-12-07T02:45:17;14.15;;;8.95;;
46334;SDS011;32051;48.882;9.210;2022-12-07T02:47:47;12.38;;;8.30;;
46334;SDS011;32051;48.882;9.210;2022-12-07T02:50:18;9.45;;;8.35;;
46334;SDS011;32051;48.882;9.210;2022-12-07T02:52:46;9.07;;;8.13;;
46334;SDS011;32051;48.882;9.210;2022-12-07T02:55:12;11.63;;;8.50;;
46334;SDS011;32051;48.882;9.210;2022-12-07T02:57:47;7.80;;;7.10;;
46334;SDS011;32051;48.882;9.210;2022-12-07T03:00:14;9.35;;;7.63;;
46334;SDS011;32051;48.882;9.210;2022-12-07T03:11:06;7.70;;;7.03;;
46334;SDS011;32051;48.882;9.210;2022-12-07T03:13:41;12.68;;;7.88;;
46334;SDS011;32051;48.882;9.210;2022-12-07T03:16:20;12.50;;;7.20;;
46334;SDS011;32051;48.882;9.210;2022-12-07T03:19:08;8.18;;;7.30;;
46334;SDS011;32051;48.882;9.210;2022-12-07T03:21:39;9.57;;;7.97;;
46334;SDS011;32051;48.882;9.210;2022-12-07T03:24:12;8.48;;;7.38;;
46334;SDS011;32051;48.882;9.210;2022-12-07T03:26:41;8.15;;;7.25;;
46334;SDS011;32051;48.882;9.210;2022-12-07T03:29:14;11.23;;;7.20;;
46334;SDS011;32051;48.882;9.210;2022-12-07T03:31:51;9.40;;;7.53;;
46334;SDS011;32051;48.882;9.210;2022-12-07T03:34:38;11.15;;;7.78;;
46334;SDS011;32051;48.882;9.210;2022-12-07T03:37:14;7.75;;;7.13;;
46334;SDS011;32051;48.882;9.210;2022-12-07T03:42:22;8.68;;;7.85;;
46334;SDS011;32051;48.882;9.210;2022-12-07T03:44:49;8.18;;;7.47;;
46334;SDS011;32051;48.882;9.210;2022-12-07T03:47:29;7.65;;;7.00;;
46334;SDS011;32051;48.882;9.210;2022-12-07T03:50:06;8.82;;;7.10;;
46334;SDS011;32051;48.882;9.210;2022-12-07T03:52:40;7.93;;;7.22;;
46334;SDS011;32051;48.882;9.210;2022-12-07T03:58:00;8.77;;;7.88;;
46334;SDS011;32051;48.882;9.210;2022-12-07T04:00:29;8.90;;;7.72;;
46334;SDS011;32051;48.882;9.210;2022-12-07T04:02:55;11.48;;;8.55;;
46334;SDS011;32051;48.882;9.210;2022-12-07T04:05:21;9.73;;;7.78;;
46334;SDS011;32051;48.882;9.210;2022-12-07T04:07:47;8.93;;;8.02;;
46334;SDS011;32051;48.882;9.210;2022-12-07T04:10:13;8.55;;;7.70;;
46334;SDS011;32051;48.882;9.210;2022-12-07T04:12:39;11.90;;;7.00;;
46334;SDS011;32051;48.882;9.210;2022-12-07T04:15:04;8.88;;;8.07;;
46334;SDS011;32051;48.882;9.210;2022-12-07T04:17:31;9.52;;;8.05;;
46334;SDS011;32051;48.882;9.210;2022-12-07T04:19:56;9.30;;;8.02;;
46334;SDS011;32051;48.882;9.210;2022-12-07T04:22:22;11.00;;;9.00;;
46334;SDS011;32051;48.882;9.210;2022-12-07T04:24:48;9.55;;;8.60;;
46334;SDS011;32051;48.882;9.210;2022-12-07T04:27:13;10.18;;;8.73;;
46334;SDS011;32051;48.882;9.210;2022-12-07T04:29:39;15.23;;;8.30;;
46334;SDS011;32051;48.882;9.210;2022-12-07T04:32:05;11.18;;;8.80;;
46334;SDS011;32051;48.882;9.210;2022-12-07T04:34:30;12.52;;;7.70;;
46334;SDS011;32051;48.882;9.210;2022-12-07T04:36:56;10.38;;;9.02;;
46334;SDS011;32051;48.882;9.210;2022-12-07T04:39:24;13.77;;;9.15;;
46334;SDS011;32051;48.882;9.210;2022-12-07T04:41:51;10.75;;;8.38;;
46334;SDS011;32051;48.882;9.210;2022-12-07T04:44:17;9.60;;;8.52;;
46334;SDS011;32051;48.882;9.210;2022-12-07T04:46:44;11.77;;;9.68;;
46334;SDS011;32051;48.882;9.210;2022-12-07T04:49:10;9.05;;;8.25;;
46334;SDS011;32051;48.882;9.210;2022-12-07T04:51:36;10.32;;;9.20;;
46334;SDS011;32051;48.882;9.210;2022-12-07T04:54:02;9.52;;;8.30;;
46334;SDS011;32051;48.882;9.210;2022-12-07T04:56:28;9.77;;;8.77;;
46334;SDS011;32051;48.882;9.210;2022-12-07T04:58:54;9.45;;;7.95;;
46334;SDS011;32051;48.882;9.210;2022-12-07T05:01:21;12.18;;;9.48;;
46334;SDS011;32051;48.882;9.210;2022-12-07T05:03:47;10.38;;;9.38;;
46334;SDS011;32051;48.882;9.210;2022-12-07T05:06:13;9.02;;;8.15;;
46334;SDS011;32051;48.882;9.210;2022-12-07T05:08:39;9.63;;;8.52;;
46334;SDS011;32051;48.882;9.210;2022-12-07T05:11:05;11.75;;;9.43;;
46334;SDS011;32051;48.882;9.210;2022-12-07T05:13:32;10.73;;;9.30;;
46334;SDS011;32051;48.882;9.210;2022-12-07T05:15:58;13.32;;;8.63;;
46334;SDS011;32051;48.882;9.210;2022-12-07T05:18:24;11.27;;;8.80;;
46334;SDS011;32051;48.882;9.210;2022-12-07T05:20:50;9.70;;;8.52;;
46334;SDS011;32051;48.882;9.210;2022-12-07T05:23:16;12.43;;;9.40;;
46334;SDS011;32051;48.882;9.210;2022-12-07T05:25:42;10.27;;;9.27;;
46334;SDS011;32051;48.882;9.210;2022-12-07T05:28:08;9.88;;;8.90;;
46334;SDS011;32051;48.882;9.210;2022-12-07T05:30:34;10.82;;;8.70;;
46334;SDS011;32051;48.882;9.210;2022-12-07T05:33:00;10.48;;;9.02;;
46334;SDS011;32051;48.882;9.210;2022-12-07T05:35:26;12.43;;;9.85;;
46334;SDS011;32051;48.882;9.210;2022-12-07T05:37:51;11.82;;;9.45;;
46334;SDS011;32051;48.882;9.210;2022-12-07T05:40:17;9.90;;;8.63;;
46334;SDS011;32051;48.882;9.210;2022-12-07T05:42:44;11.05;;;9.55;;
46334;SDS011;32051;48.882;9.210;2022-12-07T05:45:10;10.75;;;8.93;;
46334;SDS011;32051;48.882;9.210;2022-12-07T05:47:36;10.23;;;9.02;;
46334;SDS011;32051;48.882;9.210;2022-12-07T05:50:02;13.80;;;8.57;;
46334;SDS011;32051;48.882;9.210;2022-12-07T05:52:29;9.20;;;8.23;;
46334;SDS011;32051;48.882;9.210;2022-12-07T05:54:54;9.88;;;8.90;;
46334;SDS011;32051;48.882;9.210;2022-12-07T05:57:20;12.68;;;8.82;;
46334;SDS011;32051;48.882;9.210;2022-12-07T05:59:46;8.93;;;8.10;;
46334;SDS011;32051;48.882;9.210;2022-12-07T06:02:13;9.43;;;8.52;;
46334;SDS011;32051;48.882;9.210;2022-12-07T06:04:41;9.32;;;8.52;;
46334;SDS011;32051;48.882;9.210;2022-12-07T06:07:11;9.65;;;7.75;;
46334;SDS011;32051;48.882;9.210;2022-12-07T06:09:38;8.93;;;8.02;;
46334;SDS011;32051;48.882;9.210;2022-12-07T06:12:04;9.02;;;8.15;;
46334;SDS011;32051;48.882;9.210;2022-12-07T06:14:48;40.60;;;17.90;;
46334;SDS011;32051;48.882;9.210;2022-12-07T06:17:14;26.25;;;14.05;;
46334;SDS011;32051;48.882;9.210;2022-12-07T06:19:41;28.35;;;14.50;;
46334;SDS011;32051;48.882;9.210;2022-12-07T06:22:07;51.38;;;22.55;;
46334;SDS011;32051;48.882;9.210;2022-12-07T06:24:34;74.05;;;33.22;;
46334;SDS011;32051;48.882;9.210;2022-12-07T06:27:00;24.00;;;11.48;;
46334;SDS011;32051;48.882;9.210;2022-12-07T06:29:26;18.63;;;12.00;;
46334;SDS011;32051;48.882;9.210;2022-12-07T06:31:52;18.40;;;10.93;;
46334;SDS011;32051;48.882;9.210;2022-12-07T06:34:20;15.55;;;11.45;;
46334;SDS011;32051;48.882;9.210;2022-12-07T06:36:50;14.57;;;9.73;;
46334;SDS011;32051;48.882;9.210;2022-12-07T06:39:19;12.40;;;8.82;;
46334;SDS011;32051;48.882;9.210;2022-12-07T06:41:45;12.82;;;8.98;;
46334;SDS011;32051;48.882;9.210;2022-12-07T06:44:11;9.23;;;8.23;;
46334;SDS011;32051;48.882;9.210;2022-12-07T06:46:37;9.95;;;8.07;;
46334;SDS011;32051;48.882;9.210;2022-12-07T06:49:03;10.68;;;8.60;;
46334;SDS011;32051;48.882;9.210;2022-12-07T06:51:31;8.57;;;7.88;;
46334;SDS011;32051;48.882;9.210;2022-12-07T06:53:57;9.77;;;7.55;;
46334;SDS011;32051;48.882;9.210;2022-12-07T06:56:23;8.38;;;6.60;;
46334;SDS011;32051;48.882;9.210;2022-12-07T06:58:49;9.05;;;7.70;;
46334;SDS011;32051;48.882;9.210;2022-12-07T07:01:16;9.82;;;6.45;;
46334;SDS011;32051;48.882;9.210;2022-12-07T07:03:43;7.85;;;7.13;;
46334;SDS011;32051;48.882;9.210;2022-12-07T07:06:10;13.85;;;6.72;;
46334;SDS011;32051;48.882;9.210;2022-12-07T07:08:37;6.65;;;5.95;;
46334;SDS011;32051;48.882;9.210;2022-12-07T07:11:04;5.93;;;5.43;;
46334;SDS011;32051;48.882;9.210;2022-12-07T07:13:30;6.40;;;5.82;;
46334;SDS011;32051;48.882;9.210;2022-12-07T07:15:56;5.97;;;5.43;;
46334;SDS011;32051;48.882;9.210;2022-12-07T07:18:22;6.50;;;5.85;;
46334;SDS011;32051;48.882;9.210;2022-12-07T07:20:49;9.57;;;5.93;;
46334;SDS011;32051;48.882;9.210;2022-12-07T07:23:16;7.13;;;6.22;;
46334;SDS011;32051;48.882;9.210;2022-12-07T07:25:41;9.32;;;8.00;;
46334;SDS011;32051;48.882;9.210;2022-12-07T07:28:07;6.78;;;6.07;;
46334;SDS011;32051;48.882;9.210;2022-12-07T07:30:33;6.63;;;6.03;;
46334;SDS011;32051;48.882;9.210;2022-12-07T07:32:59;6.78;;;6.18;;
46334;SDS011;32051;48.882;9.210;2022-12-07T07:35:27;5.47;;;4.97;;
46334;SDS011;32051;48.882;9.210;2022-12-07T07:37:54;7.53;;;5.55;;
46334;SDS011;32051;48.882;9.210;2022-12-07T07:40:20;6.28;;;5.78;;
46334;SDS011;32051;48.882;9.210;2022-12-07T07:42:49;6.35;;;5.78;;
46334;SDS011;32051;48.882;9.210;2022-12-07T07:45:16;5.50;;;4.78;;
46334;SDS011;32051;48.882;9.210;2022-12-07T07:47:43;7.40;;;5.35;;
46334;SDS011;32051;48.882;9.210;2022-12-07T07:50:08;5.65;;;5.13;;
46334;SDS011;32051;48.882;9.210;2022-12-07T07:52:34;5.40;;;4.90;;
46334;SDS011;32051;48.882;9.210;2022-12-07T07:55:00;8.85;;;6.00;;
46334;SDS011;32051;48.882;9.210;2022-12-07T07:57:26;6.28;;;5.43;;
46334;SDS011;32051;48.882;9.210;2022-12-07T07:59:52;6.28;;;5.22;;
46334;SDS011;32051;48.882;9.210;2022-12-07T08:02:18;6.35;;;5.50;;
46334;SDS011;32051;48.882;9.210;2022-12-07T08:04:45;5.63;;;5.15;;
46334;SDS011;32051;48.882;9.210;2022-12-07T08:07:12;6.60;;;6.07;;
46334;SDS011;32051;48.882;9.210;2022-12-07T08:09:38;6.32;;;5.85;;
46334;SDS011;32051;48.882;9.210;2022-12-07T08:12:03;5.22;;;4.82;;
46334;SDS011;32051;48.882;9.210;2022-12-07T08:14:30;5.15;;;4.75;;
46334;SDS011;32051;48.882;9.210;2022-12-07T08:16:55;5.50;;;5.00;;
46334;SDS011;32051;48.882;9.210;2022-12-07T08:19:22;5.82;;;5.30;;
46334;SDS011;32051;48.882;9.210;2022-12-07T08:21:48;5.05;;;4.35;;
46334;SDS011;32051;48.882;9.210;2022-12-07T08:24:13;9.50;;;5.32;;
46334;SDS011;32051;48.882;9.210;2022-12-07T08:26:40;5.65;;;5.03;;
46334;SDS011;32051;48.882;9.210;2022-12-07T08:29:06;5.72;;;5.22;;
46334;SDS011;32051;48.882;9.210;2022-12-07T08:31:32;4.90;;;4.47;;
46334;SDS011;32051;48.882;9.210;2022-12-07T08:33:57;5.80;;;5.20;;
46334;SDS011;32051;48.882;9.210;2022-12-07T08:36:23;5.53;;;5.03;;
46334;SDS011;32051;48.882;9.210;2022-12-07T08:38:50;9.60;;;4.38;;
46334;SDS011;32051;48.882;9.210;2022-12-07T08:41:16;5.32;;;4.45;;
46334;SDS011;32051;48.882;9.210;2022-12-07T08:43:42;6.07;;;5.20;;
46334;SDS011;32051;48.882;9.210;2022-12-07T08:46:24;5.13;;;4.68;;
46334;SDS011;32051;48.882;9.210;2022-12-07T08:49:04;9.13;;;4.82;;
46334;SDS011;32051;48.882;9.210;2022-12-07T08:51:39;5.55;;;4.43;;
46334;SDS011;32051;48.882;9.210;2022-12-07T08:54:06;4.97;;;4.57;;
46334;SDS011;32051;48.882;9.210;2022-12-07T08:56:35;5.10;;;4.68;;
46334;SDS011;32051;48.882;9.210;2022-12-07T08:59:01;6.15;;;5.63;;
46334;SDS011;32051;48.882;9.210;2022-12-07T09:01:29;4.70;;;4.40;;
46334;SDS011;32051;48.882;9.210;2022-12-07T09:03:56;5.20;;;4.80;;
46334;SDS011;32051;48.882;9.210;2022-12-07T09:06:23;5.20;;;4.72;;
46334;SDS011;32051;48.882;9.210;2022-12-07T09:08:53;5.05;;;4.60;;
46334;SDS011;32051;48.882;9.210;2022-12-07T09:11:27;10.07;;;6.07;;
46334;SDS011;32051;48.882;9.210;2022-12-07T09:13:56;6.20;;;5.38;;
46334;SDS011;32051;48.882;9.210;2022-12-07T09:16:24;4.95;;;4.45;;
46334;SDS011;32051;48.882;9.210;2022-12-07T09:18:49;5.15;;;4.65;;
46334;SDS011;32051;48.882;9.210;2022-12-07T09:21:15;5.30;;;4.78;;
46334;SDS011;32051;48.882;9.210;2022-12-07T09:23:41;5.10;;;4.70;;
46334;SDS011;32051;48.882;9.210;2022-12-07T09:26:07;6.35;;;4.25;;
46334;SDS011;32051;48.882;9.210;2022-12-07T09:28:33;8.10;;;4.65;;
46334;SDS011;32051;48.882;9.210;2022-12-07T09:30:59;7.75;;;3.85;;
46334;SDS011;32051;48.882;9.210;2022-12-07T09:33:25;4.32;;;3.92;;
46334;SDS011;32051;48.882;9.210;2022-12-07T09:35:51;8.63;;;3.50;;
46334;SDS011;32051;48.882;9.210;2022-12-07T09:38:17;7.32;;;3.15;;
46334;SDS011;32051;48.882;9.210;2022-12-07T09:40:44;3.85;;;3.55;;
46334;SDS011;32051;48.882;9.210;2022-12-07T09:43:15;4.68;;;3.08;;
46334;SDS011;32051;48.882;9.210;2022-12-07T09:45:50;3.70;;;3.40;;
46334;SDS011;32051;48.882;9.210;2022-12-07T09:50:54;4.32;;;3.00;;
46334;SDS011;32051;48.882;9.210;2022-12-07T09:53:44;4.90;;;3.88;;
46334;SDS011;32051;48.882;9.210;2022-12-07T09:56:16;11.43;;;4.10;;
46334;SDS011;32051;48.882;9.210;2022-12-07T09:58:44;4.82;;;4.43;;
46334;SDS011;32051;48.882;9.210;2022-12-07T10:01:12;5.40;;;4.65;;
46334;SDS011;32051;48.882;9.210;2022-12-07T10:03:53;6.32;;;4.55;;
46334;SDS011;32051;48.882;9.210;2022-12-07T10:06:23;7.50;;;5.07;;
46334;SDS011;32051;48.882;9.210;2022-12-07T10:08:49;6.10;;;4.80;;
46334;SDS011;32051;48.882;9.210;2022-12-07T10:11:15;10.73;;;4.43;;
46334;SDS011;32051;48.882;9.210;2022-12-07T10:13:42;5.28;;;3.63;;
46334;SDS011;32051;48.882;9.210;2022-12-07T10:18:41;4.47;;;4.07;;
46334;SDS011;32051;48.882;9.210;2022-12-07T10:23:40;3.50;;;3.20;;
46334;SDS011;32051;48.882;9.210;2022-12-07T10:26:51;7.20;;;3.10;;
46334;SDS011;32051;48.882;9.210;2022-12-07T10:28:59;5.45;;;3.60;;
46334;SDS011;32051;48.882;9.210;2022-12-07T10:31:26;2.97;;;2.75;;
46334;SDS011;32051;48.882;9.210;2022-12-07T10:36:23;3.15;;;2.95;;
46334;SDS011;32051;48.882;9.210;2022-12-07T10:38:51;3.83;;;3.13;;
46334;SDS011;32051;48.882;9.210;2022-12-07T10:41:17;4.38;;;4.05;;
46334;SDS011;32051;48.882;9.210;2022-12-07T10:43:54;3.83;;;3.38;;
46334;SDS011;32051;48.882;9.210;2022-12-07T10:55:01;3.95;;;2.83;;
46334;SDS011;32051;48.882;9.210;2022-12-07T11:00:19;3.05;;;2.85;;
46334;SDS011;32051;48.882;9.210;2022-12-07T11:03:15;3.27;;;2.97;;
46334;SDS011;32051;48.882;9.210;2022-12-07T11:05:53;3.53;;;3.25;;
46334;SDS011;32051;48.882;9.210;2022-12-07T11:22:50;5.38;;;3.38;;
46334;SDS011;32051;48.882;9.210;2022-12-07T11:25:25;5.25;;;4.85;;
46334;SDS011;32051;48.882;9.210;2022-12-07T11:33:33;5.60;;;5.03;;
46334;SDS011;32051;48.882;9.210;2022-12-07T11:39:04;6.78;;;5.28;;
46334;SDS011;32051;48.882;9.210;2022-12-07T11:41:37;6.10;;;5.13;;
46334;SDS011;32051;48.882;9.210;2022-12-07T11:47:16;6.88;;;5.13;;
46334;SDS011;32051;48.882;9.210;2022-12-07T11:52:47;5.50;;;5.10;;
46334;SDS011;32051;48.882;9.210;2022-12-07T11:55:19;5.72;;;5.22;;
46334;SDS011;32051;48.882;9.210;2022-12-07T11:58:40;8.05;;;5.50;;
46334;SDS011;32051;48.882;9.210;2022-12-07T12:00:48;6.00;;;5.50;;
46334;SDS011;32051;48.882;9.210;2022-12-07T12:03:20;7.53;;;6.80;;
46334;SDS011;32051;48.882;9.210;2022-12-07T12:05:55;7.47;;;4.50;;
46334;SDS011;32051;48.882;9.210;2022-12-07T12:08:24;5.68;;;5.18;;
46334;SDS011;32051;48.882;9.210;2022-12-07T12:11:09;5.72;;;4.78;;
46334;SDS011;32051;48.882;9.210;2022-12-07T12:14:00;6.05;;;4.90;;
46334;SDS011;32051;48.882;9.210;2022-12-07T12:22:41;6.22;;;5.18;;
46334;SDS011;32051;48.882;9.210;2022-12-07T12:25:29;5.80;;;5.28;;
46334;SDS011;32051;48.882;9.210;2022-12-07T12:28:02;7.28;;;5.18;;
46334;SDS011;32051;48.882;9.210;2022-12-07T12:30:36;5.47;;;5.07;;
46334;SDS011;32051;48.882;9.210;2022-12-07T12:33:06;6.53;;;6.00;;
46334;SDS011;32051;48.882;9.210;2022-12-07T12:39:07;5.25;;;4.85;;
46334;SDS011;32051;48.882;9.210;2022-12-07T12:44:03;6.60;;;5.93;;
46334;SDS011;32051;48.882;9.210;2022-12-07T12:49:32;5.80;;;5.22;;
46334;SDS011;32051;48.882;9.210;2022-12-07T12:54:57;7.57;;;5.70;;
46334;SDS011;32051;48.882;9.210;2022-12-07T12:57:35;8.13;;;5.18;;
46334;SDS011;32051;48.882;9.210;2022-12-07T13:00:23;7.07;;;5.43;;
46334;SDS011;32051;48.882;9.210;2022-12-07T13:05:18;6.00;;;5.38;;
46334;SDS011;32051;48.882;9.210;2022-12-07T13:13:05;7.10;;;6.40;;
46334;SDS011;32051;48.882;9.210;2022-12-07T13:31:45;8.13;;;7.50;;
46334;SDS011;32051;48.882;9.210;2022-12-07T13:39:45;8.25;;;7.32;;
46334;SDS011;32051;48.882;9.210;2022-12-07T13:44:56;8.32;;;6.72;;
46334;SDS011;32051;48.882;9.210;2022-12-07T13:49:54;8.70;;;7.75;;
46334;SDS011;32051;48.882;9.210;2022-12-07T13:52:27;9.07;;;7.18;;
46334;SDS011;32051;48.882;9.210;2022-12-07T13:57:23;9.57;;;7.93;;
46334;SDS011;32051;48.882;9.210;2022-12-07T13:59:50;9.00;;;8.20;;
46334;SDS011;32051;48.882;9.210;2022-12-07T14:02:21;13.80;;;7.90;;
46334;SDS011;32051;48.882;9.210;2022-12-07T14:05:14;8.73;;;7.22;;
46334;SDS011;32051;48.882;9.210;2022-12-07T14:07:54;7.80;;;6.88;;
46334;SDS011;32051;48.882;9.210;2022-12-07T14:10:33;7.93;;;7.20;;
46334;SDS011;32051;48.882;9.210;2022-12-07T14:13:20;6.82;;;6.25;;
46334;SDS011;32051;48.882;9.210;2022-12-07T14:15:49;9.10;;;7.70;;
46334;SDS011;32051;48.882;9.210;2022-12-07T14:21:05;15.63;;;8.60;;
46334;SDS011;32051;48.882;9.210;2022-12-07T14:26:35;11.25;;;9.77;;
46334;SDS011;32051;48.882;9.210;2022-12-07T14:31:53;10.88;;;8.88;;
46334;SDS011;32051;48.882;9.210;2022-12-07T14:34:20;8.82;;;7.72;;
46334;SDS011;32051;48.882;9.210;2022-12-07T14:36:47;8.95;;;8.07;;
46334;SDS011;32051;48.882;9.210;2022-12-07T14:39:13;8.00;;;7.20;;
46334;SDS011;32051;48.882;9.210;2022-12-07T14:41:38;10.45;;;7.95;;
46334;SDS011;32051;48.882;9.210;2022-12-07T14:44:16;11.88;;;7.57;;
46334;SDS011;32051;48.882;9.210;2022-12-07T14:46:47;14.52;;;8.98;;
46334;SDS011;32051;48.882;9.210;2022-12-07T14:49:13;8.45;;;7.45;;
46334;SDS011;32051;48.882;9.210;2022-12-07T14:51:39;8.25;;;7.50;;
46334;SDS011;32051;48.882;9.210;2022-12-07T14:54:07;10.05;;;7.53;;
46334;SDS011;32051;48.882;9.210;2022-12-07T14:56:44;9.68;;;7.07;;
46334;SDS011;32051;48.882;9.210;2022-12-07T14:59:14;10.48;;;7.63;;
46334;SDS011;32051;48.882;9.210;2022-12-07T15:01:43;10.13;;;7.65;;
46334;SDS011;32051;48.882;9.210;2022-12-07T15:04:09;7.80;;;7.10;;
46334;SDS011;32051;48.882;9.210;2022-12-07T15:06:35;10.25;;;8.68;;
46334;SDS011;32051;48.882;9.210;2022-12-07T15:09:01;16.08;;;8.75;;
46334;SDS011;32051;48.882;9.210;2022-12-07T15:11:27;13.02;;;7.75;;
46334;SDS011;32051;48.882;9.210;2022-12-07T15:13:53;7.82;;;7.13;;
46334;SDS011;32051;48.882;9.210;2022-12-07T15:16:38;9.50;;;7.93;;
46334;SDS011;32051;48.882;9.210;2022-12-07T15:19:08;9.20;;;7.53;;
46334;SDS011;32051;48.882;9.210;2022-12-07T15:22:01;8.10;;;7.13;;
46334;SDS011;32051;48.882;9.210;2022-12-07T15:24:26;12.13;;;7.93;;
46334;SDS011;32051;48.882;9.210;2022-12-07T15:26:52;10.07;;;8.20;;
46334;SDS011;32051;48.882;9.210;2022-12-07T15:29:18;15.98;;;8.63;;
46334;SDS011;32051;48.882;9.210;2022-12-07T15:31:44;12.10;;;7.90;;
46334;SDS011;32051;48.882;9.210;2022-12-07T15:34:10;12.88;;;8.73;;
46334;SDS011;32051;48.882;9.210;2022-12-07T15:36:36;17.58;;;8.52;;
46334;SDS011;32051;48.882;9.210;2022-12-07T15:39:02;15.40;;;9.18;;
46334;SDS011;32051;48.882;9.210;2022-12-07T15:41:28;12.57;;;10.23;;
46334;SDS011;32051;48.882;9.210;2022-12-07T15:43:54;10.63;;;8.95;;
46334;SDS011;32051;48.882;9.210;2022-12-07T15:46:39;12.63;;;9.45;;
46334;SDS011;32051;48.882;9.210;2022-12-07T15:49:10;12.65;;;9.65;;
46334;SDS011;32051;48.882;9.210;2022-12-07T15:51:41;12.77;;;9.45;;
46334;SDS011;32051;48.882;9.210;2022-12-07T15:54:08;13.63;;;9.68;;
46334;SDS011;32051;48.882;9.210;2022-12-07T15:56:47;14.32;;;10.20;;
46334;SDS011;32051;48.882;9.210;2022-12-07T15:59:13;12.88;;;10.68;;
46334;SDS011;32051;48.882;9.210;2022-12-07T16:01:39;13.00;;;11.18;;
46334;SDS011;32051;48.882;9.210;2022-12-07T16:04:04;15.98;;;9.98;;
46334;SDS011;32051;48.882;9.210;2022-12-07T16:06:30;11.00;;;9.05;;
46334;SDS011;32051;48.882;9.210;2022-12-07T16:08:56;16.05;;;10.65;;
46334;SDS011;32051;48.882;9.210;2022-12-07T16:11:22;13.07;;;9.85;;
46334;SDS011;32051;48.882;9.210;2022-12-07T16:13:48;13.98;;;10.23;;
46334;SDS011;32051;48.882;9.210;2022-12-07T16:16:15;15.30;;;10.90;;
46334;SDS011;32051;48.882;9.210;2022-12-07T16:18:42;10.32;;;9.30;;
46334;SDS011;32051;48.882;9.210;2022-12-07T16:21:09;15.55;;;11.05;;
46334;SDS011;32051;48.882;9.210;2022-12-07T16:23:34;19.73;;;10.93;;
46334;SDS011;32051;48.882;9.210;2022-12-07T16:26:07;11.75;;;9.77;;
46334;SDS011;32051;48.882;9.210;2022-12-07T16:28:35;13.75;;;9.85;;
46334;SDS011;32051;48.882;9.210;2022-12-07T16:31:05;15.27;;;9.82;;
46334;SDS011;32051;48.882;9.210;2022-12-07T16:33:41;16.38;;;10.07;;
46334;SDS011;32051;48.882;9.210;2022-12-07T16:36:09;12.18;;;9.13;;
46334;SDS011;32051;48.882;9.210;2022-12-07T16:38:36;14.10;;;9.82;;
46334;SDS011;32051;48.882;9.210;2022-12-07T16:41:03;14.05;;;9.45;;
46334;SDS011;32051;48.882;9.210;2022-12-07T16:43:32;10.45;;;9.43;;
46334;SDS011;32051;48.882;9.210;2022-12-07T16:45:58;17.58;;;10.10;;
46334;SDS011;32051;48.882;9.210;2022-12-07T16:48:24;14.35;;;9.15;;
46334;SDS011;32051;48.882;9.210;2022-12-07T16:50:50;14.60;;;9.50;;
46334;SDS011;32051;48.882;9.210;2022-12-07T16:53:18;11.57;;;9.13;;
46334;SDS011;32051;48.882;9.210;2022-12-07T16:55:45;19.30;;;8.82;;
46334;SDS011;32051;48.882;9.210;2022-12-07T16:58:12;15.38;;;9.00;;
46334;SDS011;32051;48.882;9.210;2022-12-07T17:00:39;8.27;;;7.47;;
46334;SDS011;32051;48.882;9.210;2022-12-07T17:03:07;9.68;;;7.90;;
46334;SDS011;32051;48.882;9.210;2022-12-07T17:05:37;14.57;;;8.18;;
46334;SDS011;32051;48.882;9.210;2022-12-07T17:08:04;11.50;;;7.60;;
46334;SDS011;32051;48.882;9.210;2022-12-07T17:10:29;9.30;;;7.25;;
46334;SDS011;32051;48.882;9.210;2022-12-07T17:12:57;9.07;;;8.18;;